Time;durP1;ratioP1;P1;durP2;ratioP2;P2;SDS_P1;SDS_P2;PMS_P1;PMS_P2;Temp;Humidity;BMP_temperature;BMP_pressure;BME280_temperature;BME280_humidity;BME280_pressure;Samples;Min_cycle;Max_cycle;Signal;HPM_P1;HPM_P2
2022/08/16 00:01:59;;;;;;;9.07;8.07;;;;;;;;;;5057279;28;20208;-82
2022/08/16 00:04:25;;;;;;;8.10;7.40;;;;;;;;;;5091617;28;20204;-82
2022/08/16 00:06:52;;;;;;;8.13;7.33;;;;;;;;;;5074219;28;20195;-81
2022/08/16 00:09:20;;;;;;;8.60;7.80;;;;;;;;;;5091559;28;20192;-82
2022/08/16 00:11:47;;;;;;;9.40;8.50;;;;;;;;;;5073808;28;20204;-81
2022/08/16 00:14:19;;;;;;;9.23;8.30;;;;;;;;;;5091386;28;20257;-81
2022/08/16 00:16:46;;;;;;;9.27;8.23;;;;;;;;;;5091843;28;20619;-82
2022/08/16 00:19:16;;;;;;;9.13;8.27;;;;;;;;;;5091736;28;20206;-82
2022/08/16 00:21:45;;;;;;;8.93;8.03;;;;;;;;;;5091873;28;20196;-81
2022/08/16 00:24:13;;;;;;;8.70;7.90;;;;;;;;;;5073681;28;20742;-82
2022/08/16 00:26:40;;;;;;;8.17;7.57;;;;;;;;;;5073418;28;20224;-81
2022/08/16 00:29:07;;;;;;;8.70;7.90;;;;;;;;;;5094137;28;20200;-81
2022/08/16 00:31:35;;;;;;;9.00;7.50;;;;;;;;;;5077629;28;20697;-82
2022/08/16 00:34:03;;;;;;;9.53;8.60;;;;;;;;;;5077711;28;20204;-82
2022/08/16 00:36:31;;;;;;;9.93;8.40;;;;;;;;;;5095879;28;20192;-81
2022/08/16 00:38:58;;;;;;;9.37;8.57;;;;;;;;;;5095766;28;20223;-81
2022/08/16 00:41:27;;;;;;;8.67;7.90;;;;;;;;;;5077619;28;20203;-81
2022/08/16 00:43:54;;;;;;;8.70;7.77;;;;;;;;;;5095708;28;20573;-82
2022/08/16 00:46:26;;;;;;;8.57;7.57;;;;;;;;;;5095233;28;20224;-81
2022/08/16 00:48:54;;;;;;;8.30;7.60;;;;;;;;;;5077890;28;20614;-81
2022/08/16 00:51:23;;;;;;;8.20;7.50;;;;;;;;;;5076594;28;20541;-81
2022/08/16 00:53:52;;;;;;;8.30;7.57;;;;;;;;;;5095541;28;20216;-81
2022/08/16 00:56:23;;;;;;;9.53;8.63;;;;;;;;;;5094995;28;20208;-82
2022/08/16 00:58:50;;;;;;;7.67;7.03;;;;;;;;;;5095084;28;20184;-82
2022/08/16 01:01:18;;;;;;;9.90;8.70;;;;;;;;;;5095463;28;20235;-82
2022/08/16 01:03:47;;;;;;;8.87;7.97;;;;;;;;;;5094963;28;20200;-81
2022/08/16 01:06:15;;;;;;;9.40;8.60;;;;;;;;;;5076986;28;20220;-82
2022/08/16 01:08:43;;;;;;;10.97;8.60;;;;;;;;;;5094888;28;20679;-82
2022/08/16 01:11:11;;;;;;;8.87;8.07;;;;;;;;;;5094282;28;20196;-81
2022/08/16 01:13:40;;;;;;;10.23;9.23;;;;;;;;;;5093193;28;20697;-82
2022/08/16 01:16:10;;;;;;;9.77;8.30;;;;;;;;;;5095224;28;20196;-81
2022/08/16 01:18:39;;;;;;;9.73;8.73;;;;;;;;;;5077252;28;20281;-82
2022/08/16 01:21:21;;;;;;;8.13;7.43;;;;;;;;;;5077075;28;20257;-82
2022/08/16 01:23:57;;;;;;;8.43;7.73;;;;;;;;;;5094661;28;20200;-82
2022/08/16 01:26:25;;;;;;;8.73;8.00;;;;;;;;;;5091971;28;20227;-82
2022/08/16 01:28:52;;;;;;;8.33;7.63;;;;;;;;;;5094768;28;20219;-82
2022/08/16 01:31:20;;;;;;;8.53;7.73;;;;;;;;;;5076525;28;20208;-82
2022/08/16 01:33:48;;;;;;;8.93;8.13;;;;;;;;;;5076622;28;20231;-81
2022/08/16 01:36:15;;;;;;;8.93;8.23;;;;;;;;;;5076922;28;20632;-82
2022/08/16 01:38:44;;;;;;;9.23;8.33;;;;;;;;;;5076023;28;20196;-81
2022/08/16 01:41:15;;;;;;;9.27;8.43;;;;;;;;;;5093833;28;20199;-82
2022/08/16 01:43:44;;;;;;;9.77;8.77;;;;;;;;;;5093449;28;20200;-82
2022/08/16 01:46:20;;;;;;;8.50;7.70;;;;;;;;;;5094192;28;20224;-82
2022/08/16 01:48:47;;;;;;;8.40;7.70;;;;;;;;;;5094069;28;20222;-82
2022/08/16 01:51:15;;;;;;;8.43;7.27;;;;;;;;;;5094058;28;20196;-82
2022/08/16 01:53:42;;;;;;;8.30;7.50;;;;;;;;;;5093973;28;20567;-82
2022/08/16 01:56:09;;;;;;;9.03;8.23;;;;;;;;;;5076078;28;20200;-82
2022/08/16 01:58:38;;;;;;;12.70;9.17;;;;;;;;;;5093914;28;20618;-81
2022/08/16 02:01:06;;;;;;;9.57;8.67;;;;;;;;;;5076948;28;20235;-82
2022/08/16 02:03:33;;;;;;;8.77;7.90;;;;;;;;;;5076122;28;20200;-81
2022/08/16 02:06:01;;;;;;;8.10;7.30;;;;;;;;;;5093498;28;20682;-81
2022/08/16 02:08:28;;;;;;;8.57;7.77;;;;;;;;;;5092616;28;20196;-81
2022/08/16 02:10:55;;;;;;;9.30;8.43;;;;;;;;;;5092242;28;20200;-81
2022/08/16 02:13:22;;;;;;;9.00;8.30;;;;;;;;;;5075656;28;20204;-82
2022/08/16 02:15:51;;;;;;;8.73;7.93;;;;;;;;;;5094084;28;20196;-82
2022/08/16 02:18:18;;;;;;;9.20;8.30;;;;;;;;;;5093482;28;20265;-81
2022/08/16 02:20:50;;;;;;;9.73;8.70;;;;;;;;;;5075836;28;20196;-82
2022/08/16 02:23:17;;;;;;;8.30;7.70;;;;;;;;;;5093857;28;20200;-82
2022/08/16 02:25:46;;;;;;;9.83;8.90;;;;;;;;;;5075839;28;20251;-82
2022/08/16 02:28:13;;;;;;;9.13;8.33;;;;;;;;;;5092376;28;20568;-82
2022/08/16 02:30:40;;;;;;;10.10;9.20;;;;;;;;;;5093132;28;20201;-81
2022/08/16 02:33:09;;;;;;;8.43;7.73;;;;;;;;;;5075344;28;20200;-81
2022/08/16 02:35:37;;;;;;;8.70;7.40;;;;;;;;;;5093826;28;20204;-81
2022/08/16 02:38:04;;;;;;;9.30;8.10;;;;;;;;;;5075483;28;20261;-82
2022/08/16 02:40:32;;;;;;;9.73;8.23;;;;;;;;;;5075752;28;20265;-81
2022/08/16 02:42:59;;;;;;;9.20;8.37;;;;;;;;;;5091667;28;20199;-82
2022/08/16 02:45:27;;;;;;;8.57;7.87;;;;;;;;;;5075560;28;20200;-82
2022/08/16 02:47:55;;;;;;;9.07;8.17;;;;;;;;;;5092906;28;20246;-82
2022/08/16 02:50:24;;;;;;;10.10;8.27;;;;;;;;;;5074815;28;20196;-82
2022/08/16 02:52:51;;;;;;;7.60;6.90;;;;;;;;;;5057801;28;20204;-82
2022/08/16 02:55:18;;;;;;;8.43;7.67;;;;;;;;;;5073844;28;20204;-82
2022/08/16 02:57:45;;;;;;;9.10;8.33;;;;;;;;;;5074894;28;20199;-82
2022/08/16 03:00:14;;;;;;;9.10;8.20;;;;;;;;;;5093145;28;20228;-82
2022/08/16 03:02:43;;;;;;;9.63;8.73;;;;;;;;;;5092636;28;20602;-83
2022/08/16 03:05:12;;;;;;;8.43;7.73;;;;;;;;;;5091173;28;20228;-83
2022/08/16 03:07:42;;;;;;;9.00;7.80;;;;;;;;;;5092828;28;20306;-82
2022/08/16 03:10:11;;;;;;;10.33;9.03;;;;;;;;;;5091083;28;20670;-82
2022/08/16 03:12:38;;;;;;;9.73;8.87;;;;;;;;;;5091905;28;20196;-83
2022/08/16 03:15:07;;;;;;;9.90;8.93;;;;;;;;;;5091127;28;20207;-83
2022/08/16 03:17:35;;;;;;;9.33;8.43;;;;;;;;;;5092732;28;20196;-82
2022/08/16 03:20:03;;;;;;;10.73;9.07;;;;;;;;;;5074549;28;20227;-83
2022/08/16 03:22:29;;;;;;;9.00;8.20;;;;;;;;;;5092197;28;20257;-82
2022/08/16 03:25:01;;;;;;;9.20;8.40;;;;;;;;;;5090521;28;20192;-82
2022/08/16 03:27:28;;;;;;;9.20;8.27;;;;;;;;;;5091412;28;20216;-82
2022/08/16 03:29:56;;;;;;;8.63;7.83;;;;;;;;;;5092213;28;20659;-82
2022/08/16 03:32:22;;;;;;;9.30;8.33;;;;;;;;;;5057594;28;20279;-82
2022/08/16 03:34:49;;;;;;;9.07;8.17;;;;;;;;;;5091944;28;20693;-82
2022/08/16 03:37:17;;;;;;;9.80;8.90;;;;;;;;;;5092655;28;20261;-83
2022/08/16 03:39:44;;;;;;;9.43;8.47;;;;;;;;;;5072000;28;20226;-82
2022/08/16 03:42:12;;;;;;;9.00;8.10;;;;;;;;;;5041207;28;20204;-82
2022/08/16 03:44:40;;;;;;;9.30;8.40;;;;;;;;;;5092051;28;20211;-82
2022/08/16 03:47:08;;;;;;;9.10;8.03;;;;;;;;;;5092127;28;20258;-83
2022/08/16 03:49:35;;;;;;;10.73;9.03;;;;;;;;;;5074178;28;20692;-83
2022/08/16 03:52:02;;;;;;;9.40;8.57;;;;;;;;;;5091099;28;20231;-83
2022/08/16 03:54:29;;;;;;;11.03;8.30;;;;;;;;;;5090867;28;20207;-83
2022/08/16 03:56:56;;;;;;;9.10;8.30;;;;;;;;;;5091170;28;20204;-82
2022/08/16 03:59:25;;;;;;;8.43;7.63;;;;;;;;;;5092161;28;20250;-83
2022/08/16 04:01:52;;;;;;;9.47;8.50;;;;;;;;;;5072933;28;20197;-83
2022/08/16 04:04:19;;;;;;;9.70;8.80;;;;;;;;;;5091441;28;20196;-82
2022/08/16 04:06:46;;;;;;;8.53;7.83;;;;;;;;;;5091723;28;20323;-82
2022/08/16 04:09:14;;;;;;;11.20;8.87;;;;;;;;;;5074355;28;20619;-84
2022/08/16 04:11:40;;;;;;;8.93;8.03;;;;;;;;;;5089799;28;20628;-83
2022/08/16 04:14:08;;;;;;;9.10;8.30;;;;;;;;;;5090850;28;20662;-83
2022/08/16 04:16:36;;;;;;;9.63;8.63;;;;;;;;;;5074086;28;20196;-83
2022/08/16 04:19:03;;;;;;;9.77;8.87;;;;;;;;;;5091880;28;20200;-81
2022/08/16 04:21:31;;;;;;;10.23;9.17;;;;;;;;;;5071393;28;20666;-82
2022/08/16 04:23:59;;;;;;;9.50;8.63;;;;;;;;;;5090561;28;20245;-82
2022/08/16 04:26:26;;;;;;;10.27;9.27;;;;;;;;;;5090151;28;20296;-82
2022/08/16 04:28:53;;;;;;;9.87;8.87;;;;;;;;;;5073517;28;20188;-82
2022/08/16 04:31:21;;;;;;;8.83;8.13;;;;;;;;;;5071573;28;20245;-82
2022/08/16 04:33:49;;;;;;;9.50;8.60;;;;;;;;;;5073560;28;20246;-82
2022/08/16 04:36:16;;;;;;;9.03;8.23;;;;;;;;;;5091449;28;20200;-81
2022/08/16 04:38:43;;;;;;;10.83;9.37;;;;;;;;;;5073321;28;20192;-81
2022/08/16 04:41:11;;;;;;;10.40;9.40;;;;;;;;;;5091289;28;20200;-82
2022/08/16 04:43:37;;;;;;;8.20;7.40;;;;;;;;;;5089863;28;20246;-82
2022/08/16 04:46:05;;;;;;;9.33;8.37;;;;;;;;;;5073147;28;20204;-81
2022/08/16 04:48:32;;;;;;;9.90;8.80;;;;;;;;;;5092186;28;20200;-81
2022/08/16 04:51:01;;;;;;;9.17;8.43;;;;;;;;;;5091575;28;20635;-81
2022/08/16 04:53:28;;;;;;;9.37;8.47;;;;;;;;;;5091290;28;20737;-81
2022/08/16 04:55:55;;;;;;;10.70;9.37;;;;;;;;;;5055048;28;20200;-81
2022/08/16 04:58:22;;;;;;;9.30;8.47;;;;;;;;;;5091479;28;20200;-80
2022/08/16 05:00:49;;;;;;;9.23;8.43;;;;;;;;;;5089350;28;20293;-81
2022/08/16 05:03:15;;;;;;;9.43;8.60;;;;;;;;;;5090555;28;20188;-82
2022/08/16 05:05:42;;;;;;;9.50;8.70;;;;;;;;;;5090233;28;20200;-81
2022/08/16 05:08:11;;;;;;;13.27;8.70;;;;;;;;;;5090090;28;20709;-82
2022/08/16 05:10:38;;;;;;;10.27;9.47;;;;;;;;;;5086470;28;20193;-80
2022/08/16 05:13:06;;;;;;;9.80;8.90;;;;;;;;;;5089602;28;20659;-80
2022/08/16 05:15:33;;;;;;;9.13;8.30;;;;;;;;;;5090966;28;20566;-81
2022/08/16 05:18:00;;;;;;;9.87;8.97;;;;;;;;;;5093426;28;20208;-81
2022/08/16 05:20:27;;;;;;;9.50;8.60;;;;;;;;;;5093700;28;20196;-82
2022/08/16 05:22:54;;;;;;;9.63;8.73;;;;;;;;;;5093631;28;20196;-82
2022/08/16 05:25:22;;;;;;;9.80;8.77;;;;;;;;;;5093180;28;20207;-81
2022/08/16 05:27:50;;;;;;;10.37;9.47;;;;;;;;;;5093317;28;20591;-83
2022/08/16 05:30:17;;;;;;;9.47;8.47;;;;;;;;;;5093269;28;20283;-83
2022/08/16 05:32:44;;;;;;;9.27;8.50;;;;;;;;;;5094161;28;20196;-82
2022/08/16 05:35:11;;;;;;;12.93;9.00;;;;;;;;;;5093328;28;20215;-79
2022/08/16 05:37:39;;;;;;;9.50;8.53;;;;;;;;;;5093252;28;20199;-85
2022/08/16 05:40:09;;;;;;;9.77;8.37;;;;;;;;;;5093057;28;20197;-84
2022/08/16 05:42:37;;;;;;;11.27;8.70;;;;;;;;;;5093291;28;20215;-80
2022/08/16 05:45:05;;;;;;;9.13;8.03;;;;;;;;;;5093585;28;20208;-88
2022/08/16 05:47:32;;;;;;;9.17;8.37;;;;;;;;;;5093594;28;20223;-86
2022/08/16 05:49:59;;;;;;;12.37;9.07;;;;;;;;;;5092490;28;20196;-90
2022/08/16 05:52:26;;;;;;;8.67;7.77;;;;;;;;;;5094055;28;20192;-90
2022/08/16 05:54:53;;;;;;;8.97;8.17;;;;;;;;;;5094503;28;20196;-88
2022/08/16 05:57:20;;;;;;;8.60;7.80;;;;;;;;;;5092326;28;20204;-88
2022/08/16 05:59:48;;;;;;;8.73;7.83;;;;;;;;;;5094352;28;20232;-90
2022/08/16 06:02:16;;;;;;;8.77;8.00;;;;;;;;;;5089448;28;20211;-90
2022/08/16 06:04:43;;;;;;;9.17;8.30;;;;;;;;;;5091698;28;20215;-87
2022/08/16 06:07:11;;;;;;;8.97;8.27;;;;;;;;;;5091209;28;20231;-92
2022/08/16 06:09:38;;;;;;;7.90;7.17;;;;;;;;;;5093891;28;20200;-88
2022/08/16 06:12:05;;;;;;;13.03;7.73;;;;;;;;;;5088291;28;20678;-92
2022/08/16 06:14:32;;;;;;;8.23;7.43;;;;;;;;;;5079563;28;20250;-89
2022/08/16 06:17:00;;;;;;;9.27;7.17;;;;;;;;;;5094004;28;20196;-89
2022/08/16 06:19:27;;;;;;;11.13;7.37;;;;;;;;;;5093782;28;20189;-86
2022/08/16 06:21:54;;;;;;;8.50;7.67;;;;;;;;;;5093218;28;20204;-85
2022/08/16 06:24:20;;;;;;;7.27;6.57;;;;;;;;;;5090430;28;20196;-86
2022/08/16 06:26:47;;;;;;;8.73;7.83;;;;;;;;;;5093890;28;20216;-84
2022/08/16 06:29:14;;;;;;;8.37;6.67;;;;;;;;;;5093029;28;20192;-89
2022/08/16 06:31:41;;;;;;;7.77;7.10;;;;;;;;;;5093047;28;20196;-90
2022/08/16 06:34:10;;;;;;;8.20;7.40;;;;;;;;;;5093677;28;20204;-88
2022/08/16 06:36:37;;;;;;;8.53;7.73;;;;;;;;;;5083867;28;20202;-87
2022/08/16 06:39:04;;;;;;;7.73;7.13;;;;;;;;;;5085267;28;20204;-84
2022/08/16 06:41:30;;;;;;;7.00;6.37;;;;;;;;;;5092834;28;20215;-82
2022/08/16 06:43:57;;;;;;;7.77;7.07;;;;;;;;;;5093360;28;20563;-82
2022/08/16 06:46:27;;;;;;;8.73;8.03;;;;;;;;;;5080440;28;20201;-88
2022/08/16 06:48:54;;;;;;;8.00;7.30;;;;;;;;;;5074998;28;20225;-82
2022/08/16 06:51:22;;;;;;;7.80;7.10;;;;;;;;;;5092091;28;20204;-85
2022/08/16 06:53:49;;;;;;;8.23;7.53;;;;;;;;;;5092425;28;20196;-79
2022/08/16 06:56:15;;;;;;;7.00;6.40;;;;;;;;;;5091737;28;20203;-81
2022/08/16 06:58:42;;;;;;;8.13;7.37;;;;;;;;;;5092035;28;20196;-79
2022/08/16 07:01:09;;;;;;;7.80;7.10;;;;;;;;;;5092097;28;20220;-84
2022/08/16 07:03:36;;;;;;;7.90;7.20;;;;;;;;;;5091797;28;20238;-81
2022/08/16 07:06:04;;;;;;;9.00;7.37;;;;;;;;;;5092285;28;20666;-83
2022/08/16 07:08:32;;;;;;;7.30;6.63;;;;;;;;;;5091901;28;20220;-82
2022/08/16 07:10:59;;;;;;;7.07;6.47;;;;;;;;;;5092031;28;20200;-89
2022/08/16 07:13:26;;;;;;;8.03;7.33;;;;;;;;;;5092585;28;20258;-81
2022/08/16 07:15:53;;;;;;;7.53;6.77;;;;;;;;;;5092586;28;20192;-85
2022/08/16 07:18:20;;;;;;;7.97;7.27;;;;;;;;;;5091292;28;20188;-83
2022/08/16 07:20:48;;;;;;;8.60;7.80;;;;;;;;;;5092475;28;20286;-82
2022/08/16 07:23:14;;;;;;;8.63;7.23;;;;;;;;;;5091137;28;20199;-78
2022/08/16 07:25:43;;;;;;;11.77;7.00;;;;;;;;;;5092452;28;20675;-81
2022/08/16 07:28:12;;;;;;;7.97;7.27;;;;;;;;;;5077697;28;20634;-88
2022/08/16 07:30:39;;;;;;;7.90;7.20;;;;;;;;;;5088473;28;20204;-86
2022/08/16 07:33:06;;;;;;;8.52;7.25;;;;;;;;;;5088118;28;20231;-87
2022/08/16 07:35:36;;;;;;;7.57;6.97;;;;;;;;;;5086442;28;20196;-87
2022/08/16 07:38:05;;;;;;;7.68;6.97;;;;;;;;;;5084620;28;20232;-89
2022/08/16 07:40:32;;;;;;;7.13;6.53;;;;;;;;;;5092761;28;20293;-89
2022/08/16 07:43:02;;;;;;;7.45;6.85;;;;;;;;;;5080001;28;20239;-86
2022/08/16 07:45:29;;;;;;;7.90;7.10;;;;;;;;;;5085354;28;20200;-84
2022/08/16 07:47:56;;;;;;;7.20;6.50;;;;;;;;;;5090841;28;20270;-81
2022/08/16 07:50:23;;;;;;;8.13;7.07;;;;;;;;;;5091530;28;20192;-80
2022/08/16 07:52:49;;;;;;;8.57;7.38;;;;;;;;;;5090983;28;21308;-85
2022/08/16 07:55:17;;;;;;;7.15;6.45;;;;;;;;;;5092035;28;20208;-90
2022/08/16 07:57:44;;;;;;;7.63;7.03;;;;;;;;;;5091830;28;20196;-87
2022/08/16 08:00:13;;;;;;;8.35;6.80;;;;;;;;;;5091427;28;20228;-84
2022/08/16 08:02:41;;;;;;;7.63;6.28;;;;;;;;;;5092100;28;20188;-84
2022/08/16 08:05:09;;;;;;;6.90;6.35;;;;;;;;;;5091861;28;20230;-90
2022/08/16 08:07:36;;;;;;;9.82;7.18;;;;;;;;;;5081366;28;20224;-91
2022/08/16 08:10:05;;;;;;;7.53;6.82;;;;;;;;;;5072809;28;20224;-86
2022/08/16 08:12:33;;;;;;;7.45;6.63;;;;;;;;;;5079126;28;20236;-89
2022/08/16 08:15:00;;;;;;;7.57;6.88;;;;;;;;;;5091607;28;20207;-78
2022/08/16 08:17:29;;;;;;;7.20;6.47;;;;;;;;;;5090522;28;20651;-84
2022/08/16 08:19:56;;;;;;;7.75;7.10;;;;;;;;;;5090814;28;20192;-88
2022/08/16 08:22:22;;;;;;;6.75;6.25;;;;;;;;;;5091782;28;20196;-87
2022/08/16 08:24:50;;;;;;;7.28;6.65;;;;;;;;;;5090424;28;20392;-78
2022/08/16 08:27:17;;;;;;;7.32;6.65;;;;;;;;;;5090046;28;20203;-84
2022/08/16 08:29:44;;;;;;;7.43;6.82;;;;;;;;;;5091130;28;20573;-84
2022/08/16 08:32:10;;;;;;;7.03;6.43;;;;;;;;;;5090867;28;20196;-87
2022/08/16 08:34:39;;;;;;;7.13;6.43;;;;;;;;;;5091071;28;20223;-84
2022/08/16 08:37:05;;;;;;;10.40;7.28;;;;;;;;;;5090581;28;20323;-80
2022/08/16 08:39:33;;;;;;;7.30;6.70;;;;;;;;;;5069778;28;20193;-79
2022/08/16 08:42:00;;;;;;;8.50;7.80;;;;;;;;;;5070235;28;20193;-89
2022/08/16 08:44:27;;;;;;;7.93;7.22;;;;;;;;;;5070644;28;20209;-85
2022/08/16 08:46:57;;;;;;;8.57;7.78;;;;;;;;;;5082738;28;20235;-85
2022/08/16 08:49:24;;;;;;;7.90;7.30;;;;;;;;;;5090911;28;20224;-89
2022/08/16 08:51:52;;;;;;;8.10;7.30;;;;;;;;;;5094813;28;20227;-89
2022/08/16 08:54:19;;;;;;;7.80;7.10;;;;;;;;;;5095823;28;20575;-90
2022/08/16 08:56:46;;;;;;;8.65;7.95;;;;;;;;;;5094909;28;20663;-89
2022/08/16 08:59:13;;;;;;;7.18;6.57;;;;;;;;;;5095933;28;20211;-91
2022/08/16 09:01:41;;;;;;;8.18;7.47;;;;;;;;;;5095193;28;20234;-83
2022/08/16 09:04:08;;;;;;;7.85;7.05;;;;;;;;;;5093890;28;20192;-85
2022/08/16 09:06:35;;;;;;;7.68;6.95;;;;;;;;;;5094540;28;20277;-82
2022/08/16 09:09:06;;;;;;;7.45;6.80;;;;;;;;;;5094204;28;20228;-82
2022/08/16 09:11:34;;;;;;;10.65;7.07;;;;;;;;;;5095448;28;20192;-87
2022/08/16 09:14:01;;;;;;;7.65;7.05;;;;;;;;;;5094353;28;20578;-83
2022/08/16 09:16:28;;;;;;;7.95;7.28;;;;;;;;;;5094079;28;20200;-86
2022/08/16 09:18:55;;;;;;;8.50;7.40;;;;;;;;;;5086234;28;20265;-87
2022/08/16 09:21:22;;;;;;;7.22;6.63;;;;;;;;;;5094533;28;20212;-87
2022/08/16 09:23:49;;;;;;;8.20;7.03;;;;;;;;;;5095725;28;20192;-90
2022/08/16 09:26:18;;;;;;;7.40;6.78;;;;;;;;;;5083799;28;20201;-89
2022/08/16 09:28:45;;;;;;;7.68;7.07;;;;;;;;;;5092784;28;20286;-87
2022/08/16 09:31:13;;;;;;;8.63;7.80;;;;;;;;;;5094456;28;20294;-94
2022/08/16 09:33:42;;;;;;;7.88;7.22;;;;;;;;;;5093789;28;20193;-90
2022/08/16 09:36:09;;;;;;;7.90;7.28;;;;;;;;;;5094368;28;20200;-88
2022/08/16 09:38:37;;;;;;;7.43;6.82;;;;;;;;;;5094887;28;20241;-88
2022/08/16 09:41:06;;;;;;;7.45;6.82;;;;;;;;;;5093851;28;20204;-80
2022/08/16 09:43:35;;;;;;;6.93;6.32;;;;;;;;;;5092787;28;20203;-80
2022/08/16 09:46:06;;;;;;;8.45;7.70;;;;;;;;;;5093658;28;20697;-77
2022/08/16 09:48:33;;;;;;;6.88;6.28;;;;;;;;;;5093856;28;20224;-77
2022/08/16 09:51:00;;;;;;;7.75;7.13;;;;;;;;;;5092530;28;20192;-79
2022/08/16 09:53:29;;;;;;;7.82;7.18;;;;;;;;;;5093895;28;20671;-80
2022/08/16 09:55:56;;;;;;;7.88;7.15;;;;;;;;;;5092412;28;20196;-85
2022/08/16 09:58:25;;;;;;;7.85;6.95;;;;;;;;;;5093415;28;20199;-76
2022/08/16 10:00:55;;;;;;;8.38;6.97;;;;;;;;;;5092759;28;20777;-76
2022/08/16 10:03:22;;;;;;;7.70;7.00;;;;;;;;;;5094138;28;20200;-75
2022/08/16 10:05:49;;;;;;;7.07;6.38;;;;;;;;;;5092659;28;20196;-75
2022/08/16 10:08:16;;;;;;;7.55;6.85;;;;;;;;;;5092396;28;20231;-75
2022/08/16 10:13:10;;;;;;;8.68;7.82;;;;;;;;;;5093306;28;20196;-81
2022/08/16 10:13:33;;;;;;;7.32;6.63;;;;;;;;;;5092507;28;20196;-82
2022/08/16 10:16:04;;;;;;;7.55;6.90;;;;;;;;;;5093045;28;20204;-79
2022/08/16 10:18:31;;;;;;;14.38;6.30;;;;;;;;;;5092254;28;20250;-78
2022/08/16 10:20:58;;;;;;;6.63;6.03;;;;;;;;;;5092437;28;20203;-77
2022/08/16 10:23:26;;;;;;;6.78;6.18;;;;;;;;;;5092499;28;20208;-80
2022/08/16 10:25:53;;;;;;;5.78;5.30;;;;;;;;;;5092036;28;20197;-80
2022/08/16 10:28:20;;;;;;;8.43;6.68;;;;;;;;;;5089520;28;20216;-80
2022/08/16 10:30:47;;;;;;;6.95;6.25;;;;;;;;;;5092731;28;20196;-80
2022/08/16 10:33:15;;;;;;;7.45;6.40;;;;;;;;;;5093595;28;20208;-80
2022/08/16 10:35:42;;;;;;;6.95;6.35;;;;;;;;;;5092878;28;20196;-80
2022/08/16 10:38:11;;;;;;;7.13;6.53;;;;;;;;;;5092682;28;20200;-80
2022/08/16 10:40:38;;;;;;;7.63;6.93;;;;;;;;;;5092235;28;20233;-80
2022/08/16 10:43:05;;;;;;;7.25;6.65;;;;;;;;;;5092505;28;20203;-80
2022/08/16 10:45:32;;;;;;;7.18;6.68;;;;;;;;;;5092456;28;20216;-81
2022/08/16 10:47:59;;;;;;;7.40;6.70;;;;;;;;;;5091900;28;20249;-80
2022/08/16 10:50:29;;;;;;;6.85;6.35;;;;;;;;;;5091623;28;20201;-80
2022/08/16 10:52:56;;;;;;;7.90;7.22;;;;;;;;;;5092620;28;20226;-80
2022/08/16 10:55:24;;;;;;;7.85;7.13;;;;;;;;;;5091668;28;20296;-80
2022/08/16 10:57:51;;;;;;;12.40;7.85;;;;;;;;;;5091661;28;20257;-80
2022/08/16 11:00:18;;;;;;;10.05;7.18;;;;;;;;;;5091673;28;20224;-80
2022/08/16 11:02:46;;;;;;;7.47;6.78;;;;;;;;;;5091136;28;20203;-81
2022/08/16 11:05:15;;;;;;;8.52;7.68;;;;;;;;;;5091455;28;20204;-81
2022/08/16 11:07:45;;;;;;;12.25;11.30;;;;;;;;;;5092021;28;20254;-81
2022/08/16 11:10:15;;;;;;;12.88;11.65;;;;;;;;;;5091468;28;20590;-77
2022/08/16 11:12:42;;;;;;;18.42;17.08;;;;;;;;;;5090886;28;20195;-81
2022/08/16 11:15:09;;;;;;;8.43;7.82;;;;;;;;;;5091521;28;20200;-81
2022/08/16 11:17:38;;;;;;;8.43;7.63;;;;;;;;;;5091387;28;20214;-81
2022/08/16 11:20:09;;;;;;;7.13;6.53;;;;;;;;;;5091459;28;20322;-81
2022/08/16 11:22:37;;;;;;;8.60;7.85;;;;;;;;;;5071580;28;20243;-78
2022/08/16 11:25:06;;;;;;;11.20;10.32;;;;;;;;;;5084115;28;20578;-80
2022/08/16 11:27:33;;;;;;;7.35;6.75;;;;;;;;;;5091660;28;20227;-85
2022/08/16 11:29:59;;;;;;;10.30;9.50;;;;;;;;;;5091556;28;20245;-81
2022/08/16 11:32:30;;;;;;;9.77;8.02;;;;;;;;;;5091306;28;20738;-91
2022/08/16 11:34:57;;;;;;;9.75;8.85;;;;;;;;;;5091829;28;20211;-82
2022/08/16 11:37:24;;;;;;;8.98;7.15;;;;;;;;;;5091617;28;20196;-91
2022/08/16 11:39:54;;;;;;;7.97;7.28;;;;;;;;;;5091285;28;20692;-88
2022/08/16 11:42:22;;;;;;;6.70;6.20;;;;;;;;;;5091605;28;20196;-81
2022/08/16 11:44:49;;;;;;;9.50;6.28;;;;;;;;;;5090675;28;20196;-80
2022/08/16 11:47:16;;;;;;;7.53;6.93;;;;;;;;;;5091654;28;20203;-89
2022/08/16 11:49:43;;;;;;;6.88;6.38;;;;;;;;;;5091948;28;20224;-88
2022/08/16 11:52:10;;;;;;;6.50;6.00;;;;;;;;;;5091594;28;20199;-84
2022/08/16 11:54:39;;;;;;;7.28;6.72;;;;;;;;;;5091328;28;20253;-89
2022/08/16 11:57:06;;;;;;;7.55;6.95;;;;;;;;;;5081726;28;20228;-86
2022/08/16 11:59:35;;;;;;;7.20;6.55;;;;;;;;;;5090723;28;20228;-84
2022/08/16 12:02:02;;;;;;;7.53;6.93;;;;;;;;;;5091270;28;20250;-84
2022/08/16 12:04:29;;;;;;;7.32;6.60;;;;;;;;;;5091402;28;20203;-91
2022/08/16 12:06:56;;;;;;;7.65;7.05;;;;;;;;;;5091185;28;20652;-87
2022/08/16 12:09:23;;;;;;;8.18;7.57;;;;;;;;;;5091277;28;20733;-83
2022/08/16 12:11:50;;;;;;;6.95;6.45;;;;;;;;;;5090971;28;20603;-85
2022/08/16 12:14:18;;;;;;;7.00;6.13;;;;;;;;;;5086021;28;20204;-83
2022/08/16 12:16:46;;;;;;;6.65;6.10;;;;;;;;;;5070566;28;20185;-80
2022/08/16 12:19:13;;;;;;;7.35;6.78;;;;;;;;;;5079000;28;20204;-85
2022/08/16 12:21:41;;;;;;;6.70;6.20;;;;;;;;;;5091130;28;20569;-87
2022/08/16 12:24:07;;;;;;;6.72;6.15;;;;;;;;;;5091741;28;20204;-81
2022/08/16 12:26:34;;;;;;;7.20;6.50;;;;;;;;;;5094862;28;20207;-85
2022/08/16 12:29:02;;;;;;;7.32;6.68;;;;;;;;;;5094301;28;20686;-80
2022/08/16 12:31:29;;;;;;;6.82;6.22;;;;;;;;;;5094793;28;20200;-85
2022/08/16 12:33:58;;;;;;;7.05;6.43;;;;;;;;;;5095272;28;20220;-80
2022/08/16 12:36:26;;;;;;;6.88;6.32;;;;;;;;;;5095247;28;20196;-79
2022/08/16 12:38:54;;;;;;;7.15;6.57;;;;;;;;;;5094353;28;20677;-82
2022/08/16 12:41:21;;;;;;;6.57;6.05;;;;;;;;;;5095308;28;20228;-79
2022/08/16 12:43:49;;;;;;;6.55;6.05;;;;;;;;;;5094687;28;20196;-80
2022/08/16 12:46:16;;;;;;;6.53;6.00;;;;;;;;;;5094499;28;20654;-82
2022/08/16 12:48:56;;;;;;;6.28;5.75;;;;;;;;;;5094857;28;20188;-88
2022/08/16 12:51:30;;;;;;;6.68;6.07;;;;;;;;;;5094825;28;20608;-85
2022/08/16 12:53:59;;;;;;;6.75;6.15;;;;;;;;;;5095319;28;20196;-86
2022/08/16 12:56:32;;;;;;;7.05;6.55;;;;;;;;;;5095745;28;20200;-87
2022/08/16 12:59:00;;;;;;;6.28;5.78;;;;;;;;;;5087544;28;20205;-86
2022/08/16 13:01:29;;;;;;;6.60;6.10;;;;;;;;;;5094449;28;20227;-85
2022/08/16 13:03:58;;;;;;;7.47;6.85;;;;;;;;;;5094713;28;20196;-85
2022/08/16 13:06:27;;;;;;;7.30;6.40;;;;;;;;;;5093929;28;20189;-85
2022/08/16 13:08:54;;;;;;;9.00;6.38;;;;;;;;;;5093907;28;20219;-92
2022/08/16 13:11:25;;;;;;;6.50;6.00;;;;;;;;;;5095240;28;20211;-81
2022/08/16 13:13:52;;;;;;;7.20;6.60;;;;;;;;;;5094360;28;20269;-84
2022/08/16 13:16:19;;;;;;;6.65;6.15;;;;;;;;;;5094117;28;20203;-82
2022/08/16 13:18:46;;;;;;;6.97;6.38;;;;;;;;;;5088523;28;20189;-86
2022/08/16 13:21:13;;;;;;;7.63;6.88;;;;;;;;;;5083298;28;20196;-86
2022/08/16 13:23:41;;;;;;;6.53;5.93;;;;;;;;;;5095075;28;20257;-85
2022/08/16 13:26:08;;;;;;;7.07;6.50;;;;;;;;;;5095212;28;20249;-87
2022/08/16 13:28:36;;;;;;;7.22;6.63;;;;;;;;;;5092866;28;20290;-83
2022/08/16 13:31:04;;;;;;;6.72;6.22;;;;;;;;;;5094087;28;20277;-87
2022/08/16 13:33:35;;;;;;;7.63;6.93;;;;;;;;;;5093754;28;20617;-87
2022/08/16 13:36:05;;;;;;;7.60;7.00;;;;;;;;;;5093299;28;20207;-86
2022/08/16 13:38:33;;;;;;;6.90;6.40;;;;;;;;;;5084933;28;20207;-82
2022/08/16 13:41:02;;;;;;;7.38;6.70;;;;;;;;;;5093976;28;20200;-82
2022/08/16 13:43:30;;;;;;;6.45;5.95;;;;;;;;;;5093492;28;20351;-81
2022/08/16 13:46:00;;;;;;;6.45;5.95;;;;;;;;;;5093619;28;20196;-83
2022/08/16 13:48:27;;;;;;;6.07;5.50;;;;;;;;;;5092712;28;20228;-81
2022/08/16 13:50:54;;;;;;;6.55;6.05;;;;;;;;;;5093255;28;20228;-80
2022/08/16 13:53:21;;;;;;;8.55;7.00;;;;;;;;;;5093255;28;20528;-81
2022/08/16 13:55:49;;;;;;;8.68;7.13;;;;;;;;;;5095231;28;20192;-82
2022/08/16 13:58:17;;;;;;;6.72;6.13;;;;;;;;;;5093999;28;20200;-84
2022/08/16 14:00:44;;;;;;;6.03;5.63;;;;;;;;;;5092775;28;20231;-82
2022/08/16 14:03:11;;;;;;;7.95;6.43;;;;;;;;;;5092910;28;20666;-87
2022/08/16 14:05:38;;;;;;;7.38;6.55;;;;;;;;;;5095645;28;20196;-87
2022/08/16 14:08:05;;;;;;;6.70;6.18;;;;;;;;;;5091903;28;20204;-85
2022/08/16 14:10:33;;;;;;;8.48;6.78;;;;;;;;;;5073343;28;20220;-86
2022/08/16 14:13:00;;;;;;;6.90;6.30;;;;;;;;;;5085639;28;20598;-85
2022/08/16 14:15:30;;;;;;;7.22;6.68;;;;;;;;;;5094222;28;20591;-89
2022/08/16 14:17:58;;;;;;;6.85;6.35;;;;;;;;;;5092022;28;20199;-88
2022/08/16 14:20:25;;;;;;;6.70;6.13;;;;;;;;;;5093944;28;20200;-85
2022/08/16 14:26:38;;;;;;;8.30;5.93;;;;;;;;;;5092788;28;20183;-85
2022/08/16 14:29:05;;;;;;;6.57;6.07;;;;;;;;;;5084786;28;20200;-85
2022/08/16 14:31:34;;;;;;;6.95;6.35;;;;;;;;;;5074193;28;20286;-84
2022/08/16 14:34:01;;;;;;;8.98;5.90;;;;;;;;;;5076211;28;20200;-92
2022/08/16 14:36:28;;;;;;;6.30;5.80;;;;;;;;;;5094161;28;20204;-85
2022/08/16 14:38:55;;;;;;;7.63;7.03;;;;;;;;;;5092590;28;20716;-85
2022/08/16 14:41:22;;;;;;;6.85;6.25;;;;;;;;;;5092709;28;20200;-83
2022/08/16 14:43:49;;;;;;;7.35;6.82;;;;;;;;;;5075669;28;20286;-88
2022/08/16 14:46:17;;;;;;;6.95;6.45;;;;;;;;;;5073900;28;20577;-85
2022/08/16 14:48:46;;;;;;;7.03;6.43;;;;;;;;;;5075308;28;20698;-85